Time;durP1;ratioP1;P1;durP2;ratioP2;P2;SDS_P1;SDS_P2;PMS_P1;PMS_P2;Temp;Humidity;BMP_temperature;BMP_pressure;BME280_temperature;BME280_humidity;BME280_pressure;Samples;Min_cycle;Max_cycle;Signal;HPM_P1;HPM_P2
2022/06/02 00:00:27;;;;;;;5.55;2.22;;;;;;;19.21;49.60;99786.50;4352933;32;32291;-89
2022/06/02 00:03:33;;;;;;;5.47;2.50;;;;;;;19.11;49.89;99780.00;4365093;32;33021;-90
2022/06/02 00:06:11;;;;;;;3.70;2.10;;;;;;;18.92;50.19;99771.19;4352835;32;32610;-90
2022/06/02 00:09:02;;;;;;;3.58;2.05;;;;;;;18.98;49.84;99787.66;4353444;32;31911;-89
2022/06/02 00:12:02;;;;;;;6.47;2.10;;;;;;;19.01;49.84;99781.56;4352553;32;33913;-89
2022/06/02 00:15:05;;;;;;;4.32;1.92;;;;;;;19.05;49.64;99777.16;4352788;32;33920;-90
2022/06/02 00:17:42;;;;;;;4.90;2.20;;;;;;;18.92;50.11;99780.34;4352705;32;33551;-89
2022/06/02 00:20:42;;;;;;;4.05;2.08;;;;;;;18.98;49.99;99775.69;4352556;32;33043;-89
2022/06/02 00:23:18;;;;;;;4.22;1.95;;;;;;;18.88;50.26;99768.09;4353123;32;33795;-90
2022/06/02 00:26:00;;;;;;;4.15;2.10;;;;;;;18.94;50.05;99767.03;4365180;32;34471;-89
2022/06/02 00:28:49;;;;;;;5.18;2.20;;;;;;;18.86;50.33;99769.44;4352841;32;34699;-89
2022/06/02 00:31:39;;;;;;;5.62;2.53;;;;;;;18.71;50.72;99775.69;4364966;32;31885;-89
2022/06/02 00:34:22;;;;;;;4.90;2.05;;;;;;;18.59;50.91;99774.97;4365106;32;33944;-90
2022/06/02 00:37:00;;;;;;;3.37;1.90;;;;;;;18.57;51.10;99766.03;4352933;32;34528;-89
2022/06/02 00:39:33;;;;;;;3.97;1.77;;;;;;;18.66;50.89;99759.78;4352593;32;32490;-89
2022/06/02 00:42:26;;;;;;;3.90;2.17;;;;;;;18.58;51.05;99765.78;4364851;32;33904;-89
2022/06/02 00:45:05;;;;;;;3.60;2.00;;;;;;;18.77;50.49;99757.13;4364504;32;34585;-89
2022/06/02 00:47:56;;;;;;;4.30;2.03;;;;;;;18.69;50.69;99761.22;4276305;32;2931724;-89
2022/06/02 00:50:45;;;;;;;3.80;2.00;;;;;;;18.68;50.72;99763.16;4352423;32;34190;-89
2022/06/02 00:53:32;;;;;;;4.32;2.12;;;;;;;18.74;50.71;99761.28;4352551;32;32015;-90
2022/06/02 00:59:16;;;;;;;3.20;1.80;;;;;;;18.66;51.12;99753.41;4364574;32;32964;-88
2022/06/02 01:01:43;;;;;;;5.28;2.10;;;;;;;18.54;51.60;99759.06;4378444;32;34511;-89
2022/06/02 01:04:15;;;;;;;4.32;1.87;;;;;;;18.63;51.38;99748.34;4364638;32;32728;-89
2022/06/02 01:06:54;;;;;;;6.75;2.42;;;;;;;18.69;51.11;99753.72;4352647;32;32199;-89
2022/06/02 01:09:31;;;;;;;5.12;2.20;;;;;;;18.71;51.13;99751.50;4352917;32;34078;-89
2022/06/02 01:12:10;;;;;;;4.10;1.87;;;;;;;18.74;51.07;99751.00;4365150;32;35004;-89
2022/06/02 01:14:47;;;;;;;3.78;1.90;;;;;;;18.72;51.47;99747.63;4378169;32;33416;-89
2022/06/02 01:17:36;;;;;;;5.95;2.20;;;;;;;18.79;51.38;99743.81;4364850;32;34958;-89
2022/06/02 01:20:13;;;;;;;6.18;2.30;;;;;;;18.81;51.41;99748.00;4378083;32;34369;-90
2022/06/02 01:22:59;;;;;;;4.60;2.22;;;;;;;18.85;51.36;99749.13;4352541;32;33857;-88
2022/06/02 01:25:48;;;;;;;4.45;2.00;;;;;;;18.87;51.32;99744.16;4364809;32;33632;-89
2022/06/02 01:28:47;;;;;;;3.50;1.92;;;;;;;18.87;51.39;99743.31;4352357;32;32152;-88
2022/06/02 01:31:27;;;;;;;3.42;1.80;;;;;;;18.77;51.76;99732.94;4364843;32;34617;-89
2022/06/02 01:34:01;;;;;;;3.58;2.08;;;;;;;18.90;51.33;99729.72;4378147;32;33877;-89
2022/06/02 01:37:01;;;;;;;4.10;2.10;;;;;;;18.90;51.23;99726.09;4378168;32;33383;-89
2022/06/02 01:40:06;;;;;;;3.35;2.00;;;;;;;19.02;51.09;99724.84;4363976;32;32023;-89
2022/06/02 01:42:58;;;;;;;4.75;2.00;;;;;;;18.90;51.54;99726.09;4351995;32;32986;-89
2022/06/02 01:45:35;;;;;;;4.28;1.92;;;;;;;18.88;51.66;99729.16;4364338;32;33755;-89
2022/06/02 01:48:33;;;;;;;4.57;2.00;;;;;;;19.00;51.34;99732.59;4352781;32;32043;-89
2022/06/02 01:51:13;;;;;;;5.05;2.45;;;;;;;19.04;51.28;99738.50;4364419;32;34407;-89
2022/06/02 01:54:04;;;;;;;4.43;2.08;;;;;;;19.02;51.45;99737.91;4364430;32;34311;-87
2022/06/02 01:56:38;;;;;;;4.40;2.10;;;;;;;18.95;51.72;99738.12;4342507;32;33860;-89
2022/06/02 01:59:31;;;;;;;3.90;2.30;;;;;;;18.95;51.71;99723.38;4364295;32;31756;-89
2022/06/02 02:02:28;;;;;;;5.75;2.17;;;;;;;18.98;51.64;99722.84;4364177;32;33850;-88
2022/06/02 02:05:05;;;;;;;4.68;2.10;;;;;;;19.11;51.30;99722.41;4352519;32;34420;-89
2022/06/02 02:07:35;;;;;;;;;;;;;;;19.04;51.44;99736.53;4364023;32;33683;-89
2022/06/02 02:10:25;;;;;;;3.78;2.17;;;;;;;19.21;50.96;99716.94;4364024;32;33867;-88
2022/06/02 02:13:12;;;;;;;3.78;1.95;;;;;;;19.15;51.15;99722.72;4351836;32;33155;-88
2022/06/02 02:16:05;;;;;;;6.07;1.80;;;;;;;19.11;51.23;99722.41;4363900;32;34306;-89
2022/06/02 02:18:42;;;;;;;4.45;2.15;;;;;;;19.20;51.02;99722.78;4364021;32;34509;-88
2022/06/02 02:21:24;;;;;;;3.72;1.80;;;;;;;19.22;50.99;99726.97;4363835;32;32584;-89
2022/06/02 02:24:30;;;;;;;3.87;2.00;;;;;;;19.23;50.95;99731.44;4363955;32;33212;-88
2022/06/02 02:27:07;;;;;;;5.15;2.03;;;;;;;19.34;50.76;99744.34;4351611;32;34061;-87
2022/06/02 02:30:03;;;;;;;3.80;2.12;;;;;;;19.32;50.93;99754.91;4363882;32;33864;-88
2022/06/02 02:32:39;;;;;;;4.07;2.25;;;;;;;19.31;51.18;99774.66;4363665;32;31802;-89
2022/06/02 02:35:52;;;;;;;4.32;2.03;;;;;;;19.12;52.31;99785.31;4351449;32;32278;-88
2022/06/02 02:38:30;;;;;;;6.15;2.05;;;;;;;19.20;52.24;99801.53;4361780;32;32930;-89
2022/06/02 02:41:05;;;;;;;6.25;2.20;;;;;;;19.35;52.08;99811.97;4364059;32;34084;-88
2022/06/02 02:43:44;;;;;;;4.75;2.08;;;;;;;19.31;52.41;99819.16;4363735;32;33375;-88
2022/06/02 02:46:51;;;;;;;5.62;2.00;;;;;;;19.34;52.64;99815.88;4363617;32;33564;-88
2022/06/02 02:49:46;;;;;;;5.68;2.30;;;;;;;19.35;52.82;99818.37;4348631;32;34397;-89
2022/06/02 02:52:35;;;;;;;;;;;;;;;19.58;52.39;99856.19;4351742;32;33506;-88
2022/06/02 02:55:17;;;;;;;6.28;2.92;;;;;;;19.56;52.67;99883.44;4351128;32;31636;-90
2022/06/02 02:58:00;;;;;;;7.10;3.00;;;;;;;19.28;53.72;99878.97;4363514;32;34552;-88
2022/06/02 03:00:43;;;;;;;7.03;3.05;;;;;;;19.07;54.72;99866.78;4363597;32;34605;-89
2022/06/02 03:03:19;;;;;;;8.00;3.67;;;;;;;19.36;54.26;99884.06;4351250;32;34466;-88
2022/06/02 03:06:13;;;;;;;5.07;3.25;;;;;;;19.29;55.40;99885.38;4351728;32;33251;-89
2022/06/02 03:08:54;;;;;;;6.55;3.40;;;;;;;19.00;56.77;99885.59;4365741;32;33635;-88
2022/06/02 03:11:34;;;;;;;5.95;3.70;;;;;;;19.07;57.08;99899.31;4365530;32;34259;-89
2022/06/02 03:14:35;;;;;;;6.37;3.55;;;;;;;19.08;57.27;99901.84;4353160;32;33638;-89
2022/06/02 03:17:22;;;;;;;11.00;3.70;;;;;;;19.10;57.42;99893.22;4353569;32;33326;-90
2022/06/02 03:20:01;;;;;;;10.18;4.15;;;;;;;18.92;59.05;99894.41;4378979;32;34379;-90
2022/06/02 03:22:51;;;;;;;8.80;4.25;;;;;;;19.06;58.47;99894.84;4365592;32;34447;-89
2022/06/02 03:25:33;;;;;;;9.20;3.70;;;;;;;18.92;59.62;99890.78;4365501;32;34925;-88
2022/06/02 03:28:23;;;;;;;8.15;4.62;;;;;;;18.98;59.74;99895.31;4353219;32;32700;-90
2022/06/02 03:31:15;;;;;;;8.85;4.40;;;;;;;19.06;59.74;99919.88;4365772;32;33750;-90
2022/06/02 03:33:55;;;;;;;8.90;4.37;;;;;;;18.90;60.54;99906.88;4353028;32;32992;-88
2022/06/02 03:37:01;;;;;;;8.40;4.35;;;;;;;18.84;60.99;99910.72;4379054;32;34101;-86
2022/06/02 03:40:14;;;;;;;10.50;4.35;;;;;;;18.67;62.65;99906.03;4365582;32;34589;-88
2022/06/02 03:42:48;;;;;;;11.45;4.95;;;;;;;18.72;62.90;99892.22;4361305;32;33318;-88
2022/06/02 03:45:37;;;;;;;10.18;6.35;;;;;;;18.71;63.83;99878.56;4354218;32;32883;-89
2022/06/02 03:48:30;;;;;;;9.10;5.05;;;;;;;18.65;64.68;99869.31;4360719;32;33232;-87
2022/06/02 03:51:38;;;;;;;8.40;4.43;;;;;;;18.68;65.11;99854.06;4355274;32;32674;-88
2022/06/02 03:54:10;;;;;;;10.75;4.72;;;;;;;18.83;64.62;99843.13;4343055;32;32152;-89
2022/06/02 03:57:04;;;;;;;7.35;4.30;;;;;;;18.75;65.11;99830.53;4362741;32;34364;-89
2022/06/02 03:59:44;;;;;;;7.70;4.20;;;;;;;18.96;64.49;99825.19;4362502;32;32578;-89
2022/06/02 04:02:21;;;;;;;8.23;4.28;;;;;;;18.99;64.22;99817.16;4389545;32;34002;-89
2022/06/02 04:05:01;;;;;;;7.45;4.62;;;;;;;18.90;64.69;99820.66;4380537;32;34450;-89
2022/06/02 04:07:33;;;;;;;7.72;4.20;;;;;;;19.07;64.09;99824.19;4365935;32;32999;-89
2022/06/02 04:10:16;;;;;;;8.32;4.40;;;;;;;19.08;63.84;99828.66;4367702;32;33904;-87
2022/06/02 04:16:21;;;;;;;6.95;4.95;;;;;;;19.13;63.03;99855.69;4378011;32;32989;-89
2022/06/02 04:22:23;;;;;;;16.08;8.38;;;;;;;18.97;64.61;99861.09;4365924;32;32457;-91
2022/06/02 04:25:17;;;;;;;13.20;7.72;;;;;;;19.22;63.84;99870.81;4367829;32;33358;-93
2022/06/02 04:28:01;;;;;;;13.48;8.40;;;;;;;19.15;63.83;99862.69;4366594;32;32221;-91
2022/06/02 04:30:53;;;;;;;9.50;5.90;;;;;;;19.12;63.68;99863.19;4377515;32;35353;-90
2022/06/02 04:33:35;;;;;;;7.90;4.70;;;;;;;19.05;64.15;99862.56;4378601;32;33977;-90
2022/06/02 04:36:06;;;;;;;8.32;4.40;;;;;;;18.95;65.24;99851.31;4362754;32;31814;-87
2022/06/02 04:39:03;;;;;;;7.85;4.00;;;;;;;19.15;65.18;99856.28;4367846;32;34037;-86
2022/06/02 04:42:22;;;;;;;6.85;4.50;;;;;;;19.23;65.00;99853.88;4375174;32;34475;-86
2022/06/02 04:45:11;;;;;;;7.18;3.92;;;;;;;19.37;64.65;99860.72;4376582;32;34740;-85
2022/06/02 04:47:56;;;;;;;7.20;4.62;;;;;;;19.46;64.64;99874.16;4376331;32;33499;-86
2022/06/02 04:50:48;;;;;;;16.48;10.25;;;;;;;19.51;64.53;99871.41;4364938;32;32814;-85
2022/06/02 04:53:42;;;;;;;7.57;4.35;;;;;;;19.37;65.54;99874.62;4350110;32;32887;-85
2022/06/02 04:56:16;;;;;;;7.78;4.30;;;;;;;19.35;65.77;99870.41;4360862;32;34012;-87
2022/06/02 04:58:56;;;;;;;6.80;4.37;;;;;;;19.13;67.31;99864.87;4356572;32;32238;-87
2022/06/02 05:02:07;;;;;;;7.35;4.32;;;;;;;19.27;66.72;99860.59;4356286;32;32369;-87
2022/06/02 05:05:03;;;;;;;19.58;12.75;;;;;;;19.30;66.94;99859.22;4358177;32;32869;-90
2022/06/02 05:07:49;;;;;;;9.93;5.23;;;;;;;19.50;66.03;99858.59;4369730;32;34504;-88
2022/06/02 05:10:41;;;;;;;8.70;4.93;;;;;;;19.66;65.49;99874.34;4364323;32;33733;-90
2022/06/02 05:13:26;;;;;;;9.35;5.30;;;;;;;19.73;65.17;99883.34;4364542;32;33154;-86
2022/06/02 05:16:13;;;;;;;10.52;4.40;;;;;;;19.83;64.96;99882.59;4363563;32;34319;-85
2022/06/02 05:19:01;;;;;;;12.07;3.65;;;;;;;19.86;64.85;99882.06;4365837;32;34727;-86
2022/06/02 05:21:36;;;;;;;7.35;4.00;;;;;;;19.98;64.20;99878.00;4343424;32;31853;-85
2022/06/02 05:24:28;;;;;;;8.13;3.90;;;;;;;20.00;64.00;99886.94;4382801;32;32041;-85
2022/06/02 05:26:56;;;;;;;15.90;8.60;;;;;;;20.11;63.48;99884.22;4381077;32;34646;-85
2022/06/02 05:29:42;;;;;;;11.73;6.28;;;;;;;19.94;63.45;99901.94;4379233;32;34258;-85
2022/06/02 05:32:34;;;;;;;11.15;6.32;;;;;;;20.15;62.94;99904.88;4377216;32;31937;-85
2022/06/02 05:35:26;;;;;;;9.73;4.60;;;;;;;20.01;63.94;99899.75;4376817;32;33895;-85
2022/06/02 05:38:03;;;;;;;9.82;4.90;;;;;;;20.03;64.18;99903.13;4376966;32;34212;-86
2022/06/02 05:40:40;;;;;;;14.32;6.28;;;;;;;20.24;63.25;99903.25;4364872;32;33264;-87
2022/06/02 05:43:32;;;;;;;9.25;5.65;;;;;;;20.18;63.53;99913.53;4364838;32;31812;-87
2022/06/02 05:46:21;;;;;;;14.55;9.32;;;;;;;20.27;63.70;99919.44;4378104;32;33757;-85
2022/06/02 05:49:19;;;;;;;13.88;6.60;;;;;;;20.42;63.23;99921.53;4364678;32;33030;-85
2022/06/02 05:52:02;;;;;;;11.20;5.87;;;;;;;20.33;63.26;99919.22;4352255;32;32635;-86
2022/06/02 05:54:41;;;;;;;12.35;6.55;;;;;;;20.43;63.02;99917.66;4364748;32;33523;-85
2022/06/02 05:57:44;;;;;;;13.13;5.82;;;;;;;20.39;63.21;99922.91;4364567;32;33847;-85
2022/06/02 06:00:30;;;;;;;11.00;5.05;;;;;;;20.50;63.27;99913.53;4362918;32;34669;-85
2022/06/02 06:03:15;;;;;;;8.98;4.78;;;;;;;20.56;63.24;99923.59;4351113;32;32494;-85
2022/06/02 06:05:48;;;;;;;8.10;4.57;;;;;;;20.72;62.65;99927.31;4363413;32;33175;-85
2022/06/02 06:08:38;;;;;;;9.65;4.50;;;;;;;20.71;62.92;99929.28;4363264;32;34347;-85
2022/06/02 06:11:23;;;;;;;6.55;4.03;;;;;;;20.80;62.85;99924.00;4375590;32;34237;-85
2022/06/02 06:14:17;;;;;;;7.78;4.87;;;;;;;20.94;62.86;99929.94;4340012;32;32337;-84
2022/06/02 06:17:13;;;;;;;9.18;3.83;;;;;;;21.01;62.22;99934.16;4363033;32;33281;-84
2022/06/02 06:20:07;;;;;;;8.38;3.60;;;;;;;21.17;61.01;99926.69;4363367;32;33548;-85
2022/06/02 06:23:22;;;;;;;5.80;3.47;;;;;;;21.26;60.82;99921.47;4363290;32;34256;-85
2022/06/02 06:26:06;;;;;;;6.65;3.62;;;;;;;21.36;59.97;99921.50;4333225;33;32714;-84
2022/06/02 06:28:48;;;;;;;4.87;3.10;;;;;;;21.25;59.80;99914.19;4333401;33;33578;-84
2022/06/02 06:31:22;;;;;;;6.78;4.25;;;;;;;21.33;58.75;99936.84;4365369;32;32960;-84
2022/06/02 06:33:56;;;;;;;6.22;3.20;;;;;;;21.46;59.86;99931.84;4376468;32;34500;-84
2022/06/02 06:36:39;;;;;;;5.72;3.03;;;;;;;21.57;60.35;99934.38;4377392;32;34815;-83
2022/06/02 06:39:48;;;;;;;8.50;3.78;;;;;;;21.62;60.73;99936.34;4376407;32;33181;-84
2022/06/02 06:42:33;;;;;;;5.57;2.85;;;;;;;21.70;60.24;99938.59;4366627;32;33994;-84
2022/06/02 06:45:09;;;;;;;6.87;3.05;;;;;;;21.78;60.67;99949.25;4378282;32;34266;-83
2022/06/02 06:47:43;;;;;;;5.30;2.83;;;;;;;21.78;58.41;99956.78;4379413;32;34148;-84
2022/06/02 06:50:23;;;;;;;7.78;3.10;;;;;;;21.99;58.15;99964.94;4378305;32;33313;-83
2022/06/02 06:53:00;;;;;;;7.45;3.00;;;;;;;22.15;57.07;99950.97;4366166;32;33072;-83
2022/06/02 06:55:49;;;;;;;8.63;3.20;;;;;;;22.18;55.57;99953.22;4379343;32;34543;-83
2022/06/02 06:58:34;;;;;;;5.93;2.72;;;;;;;22.35;55.58;99953.78;4378219;32;34047;-82
2022/06/02 07:01:12;;;;;;;9.48;3.70;;;;;;;22.48;54.60;99961.63;4378179;32;34044;-82
2022/06/02 07:04:02;;;;;;;7.25;3.35;;;;;;;22.56;55.09;99963.00;4378163;32;33887;-84
2022/06/02 07:06:37;;;;;;;6.60;3.47;;;;;;;22.49;56.09;99957.69;4378088;32;34426;-83
2022/06/02 07:09:23;;;;;;;8.05;3.55;;;;;;;22.65;55.90;99962.16;4377891;32;34004;-83
2022/06/02 07:15:14;;;;;;;6.20;2.90;;;;;;;22.65;58.00;99962.16;4366727;32;33450;-83
2022/06/02 07:18:00;;;;;;;6.57;3.15;;;;;;;22.71;57.00;99956.56;4364228;32;34498;-83
2022/06/02 07:20:48;;;;;;;7.22;3.83;;;;;;;22.68;54.75;99960.75;4374880;32;34834;-83
2022/06/02 07:23:44;;;;;;;10.43;3.95;;;;;;;22.76;53.96;99957.34;4350715;32;31877;-83
2022/06/02 07:26:29;;;;;;;8.10;4.15;;;;;;;22.84;53.11;99964.38;4375602;32;33736;-83
2022/06/02 07:29:04;;;;;;;6.35;3.60;;;;;;;22.85;51.19;99955.69;4362460;32;33991;-84
2022/06/02 07:32:00;;;;;;;6.50;3.72;;;;;;;22.90;52.17;99954.84;4370623;32;34433;-83
2022/06/02 07:34:41;;;;;;;5.43;3.33;;;;;;;22.80;53.19;99964.09;4365332;32;31688;-82
2022/06/02 07:37:24;;;;;;;8.57;3.20;;;;;;;22.90;52.39;99957.66;4377539;32;33712;-83
2022/06/02 07:40:06;;;;;;;6.18;2.92;;;;;;;22.83;53.58;99962.69;4365345;32;32935;-83
2022/06/02 07:42:52;;;;;;;5.97;2.95;;;;;;;22.87;53.53;99950.66;4378186;32;34011;-83
2022/06/02 07:45:30;;;;;;;5.47;2.85;;;;;;;22.95;53.13;99960.44;4367801;32;31781;-83
2022/06/02 07:48:26;;;;;;;6.97;3.03;;;;;;;23.12;52.03;99966.53;4367964;32;32291;-84
2022/06/02 07:51:17;;;;;;;5.32;3.17;;;;;;;23.22;51.97;99966.50;4380130;32;34460;-82
2022/06/02 07:53:55;;;;;;;12.52;4.65;;;;;;;23.32;51.08;99971.25;4368523;32;34010;-83
2022/06/02 07:56:32;;;;;;;6.78;3.67;;;;;;;23.27;50.00;99962.84;4380335;32;33239;-83
2022/06/02 07:59:05;;;;;;;6.20;3.65;;;;;;;23.42;50.85;99964.72;4380118;32;33620;-83
2022/06/02 08:01:52;;;;;;;6.03;3.17;;;;;;;23.39;51.54;99959.72;4367707;32;35193;-82
2022/06/02 08:04:44;;;;;;;6.62;3.70;;;;;;;23.39;50.94;99973.72;4367953;32;33994;-83
2022/06/02 08:07:25;;;;;;;6.45;3.12;;;;;;;23.35;52.23;99965.06;4367760;32;32964;-82
2022/06/02 08:10:25;;;;;;;5.65;2.83;;;;;;;23.59;49.48;99979.25;4368129;32;34563;-83
2022/06/02 08:13:14;;;;;;;6.47;4.05;;;;;;;23.66;50.59;99974.16;4367982;32;35200;-83
2022/06/02 08:15:53;;;;;;;11.60;8.57;;;;;;;23.73;50.97;99977.50;4380027;32;33835;-85
2022/06/02 08:18:59;;;;;;;6.93;4.32;;;;;;;23.94;50.88;99967.00;4355510;32;32758;-83
2022/06/02 08:21:33;;;;;;;10.43;4.60;;;;;;;24.02;47.16;99976.78;4380221;32;34886;-83
2022/06/02 08:24:39;;;;;;;5.50;3.35;;;;;;;23.83;47.58;99977.44;4367542;32;33778;-84
2022/06/02 08:27:26;;;;;;;5.90;3.45;;;;;;;24.14;49.70;99971.59;4374048;32;34611;-84
2022/06/02 08:30:06;;;;;;;5.40;2.97;;;;;;;24.05;47.58;99971.37;4380050;32;34091;-84
2022/06/02 08:33:12;;;;;;;6.43;3.28;;;;;;;24.07;47.17;99977.53;4380218;32;33721;-83
2022/06/02 08:35:46;;;;;;;8.20;3.40;;;;;;;24.29;47.37;99974.34;4379766;32;34421;-83
2022/06/02 08:38:27;;;;;;;5.97;3.10;;;;;;;24.28;46.81;99978.28;4393550;32;33984;-84
2022/06/02 08:44:25;;;;;;;6.37;3.75;;;;;;;25.04;46.80;99960.72;4379669;32;32068;-83
2022/06/02 08:47:11;;;;;;;12.37;6.95;;;;;;;24.95;45.85;99974.53;4379907;32;33521;-84
2022/06/02 08:50:12;;;;;;;10.52;4.90;;;;;;;25.13;44.57;99981.41;4380061;32;33959;-85
2022/06/02 08:52:55;;;;;;;11.52;3.85;;;;;;;25.37;45.95;99972.94;4367420;32;32496;-85
2022/06/02 08:55:58;;;;;;;7.47;3.50;;;;;;;25.34;44.80;99982.00;4379980;32;33720;-84
2022/06/02 08:58:53;;;;;;;6.80;2.85;;;;;;;25.42;43.73;99986.94;4379943;32;35320;-84
2022/06/02 09:01:56;;;;;;;7.15;3.37;;;;;;;25.19;43.82;99979.38;4379937;32;34208;-84
2022/06/02 09:04:46;;;;;;;7.43;4.85;;;;;;;25.39;45.00;99981.09;4367099;32;31681;-85
2022/06/02 09:07:32;;;;;;;6.53;2.80;;;;;;;25.74;43.19;99977.84;4379793;32;33977;-84
2022/06/02 09:10:28;;;;;;;7.80;3.03;;;;;;;25.74;42.20;99989.09;4369184;32;33044;-84
2022/06/02 09:13:21;;;;;;;7.00;3.22;;;;;;;25.69;42.45;100000.41;4367594;32;34717;-85
2022/06/02 09:16:19;;;;;;;9.70;6.70;;;;;;;26.01;42.51;99996.84;4367134;32;33570;-85
2022/06/02 09:19:00;;;;;;;17.33;13.23;;;;;;;26.26;42.89;99998.44;4367281;32;33852;-83
2022/06/02 09:21:55;;;;;;;11.05;8.18;;;;;;;26.37;41.66;100001.97;4367845;32;33921;-84
2022/06/02 09:24:27;;;;;;;4.93;2.95;;;;;;;26.52;41.36;100005.38;4367301;32;32433;-85
2022/06/02 09:27:26;;;;;;;9.10;2.55;;;;;;;26.53;42.24;100018.31;4354973;32;31822;-85
2022/06/02 09:30:17;;;;;;;4.47;2.20;;;;;;;26.70;40.92;100002.78;4379892;32;34330;-85
2022/06/02 09:33:33;;;;;;;4.40;2.37;;;;;;;26.69;40.71;99992.69;4367197;32;34668;-85
2022/06/02 09:36:22;;;;;;;5.37;2.40;;;;;;;27.01;40.17;100001.12;4393049;32;33970;-87
2022/06/02 09:39:02;;;;;;;3.60;1.92;;;;;;;27.16;40.70;99995.22;4379717;32;34150;-87
2022/06/02 09:41:45;;;;;;;5.45;1.95;;;;;;;27.28;40.18;100005.97;4379644;32;33785;-88
2022/06/02 09:44:26;;;;;;;8.02;4.30;;;;;;;27.46;38.74;100004.19;4366747;32;33017;-88
2022/06/02 09:47:35;;;;;;;5.20;2.12;;;;;;;27.27;38.54;100012.75;4393193;32;32644;-87
2022/06/02 09:50:34;;;;;;;4.50;1.90;;;;;;;27.60;38.75;100002.22;4374119;32;31715;-86
2022/06/02 09:53:17;;;;;;;4.80;1.98;;;;;;;27.77;37.80;99993.13;4367274;32;34008;-87
2022/06/02 09:56:02;;;;;;;5.57;2.15;;;;;;;27.96;37.25;99992.97;4379316;32;34449;-88
2022/06/02 09:58:53;;;;;;;7.78;3.00;;;;;;;27.47;37.50;99992.59;4366965;32;32381;-88
2022/06/02 10:01:37;;;;;;;22.37;17.60;;;;;;;27.83;37.58;99994.69;4366876;32;32901;-89
2022/06/02 10:04:21;;;;;;;23.08;19.08;;;;;;;28.17;37.76;99989.34;4379253;32;33831;-88
2022/06/02 10:07:00;;;;;;;8.88;5.70;;;;;;;28.47;37.08;99993.47;4366751;32;33045;-89
2022/06/02 10:09:47;;;;;;;5.43;2.30;;;;;;;28.45;37.77;99981.66;4366580;32;33487;-89
2022/06/02 10:12:58;;;;;;;5.62;1.98;;;;;;;28.81;38.17;99980.72;4379169;32;33257;-89
2022/06/02 10:15:42;;;;;;;5.00;2.65;;;;;;;28.47;36.61;99987.81;4368346;32;33218;-89
2022/06/02 10:18:29;;;;;;;6.43;2.75;;;;;;;29.04;36.29;99976.72;4380292;32;35102;-90
2022/06/02 10:21:00;;;;;;;4.82;2.50;;;;;;;29.10;36.20;99975.41;4368430;32;32579;-89
2022/06/02 10:23:40;;;;;;;4.05;1.90;;;;;;;29.32;36.16;99985.81;4380821;32;31740;-88
2022/06/02 10:26:45;;;;;;;4.50;2.00;;;;;;;28.57;36.13;99978.25;4368427;32;33181;-86
2022/06/02 10:29:40;;;;;;;5.90;2.30;;;;;;;29.14;36.09;99989.75;4368426;32;32475;-87
2022/06/02 10:32:41;;;;;;;6.03;2.33;;;;;;;29.33;36.13;99987.47;4369409;32;33676;-91
2022/06/02 10:35:36;;;;;;;5.18;2.35;;;;;;;29.43;36.92;99975.91;4380914;32;33196;-89
2022/06/02 10:38:41;;;;;;;6.03;2.10;;;;;;;28.79;36.11;99983.84;4380750;32;33834;-88
2022/06/02 10:41:40;;;;;;;3.87;2.00;;;;;;;29.10;35.43;99989.56;4356122;32;33034;-90
2022/06/02 10:44:53;;;;;;;4.60;2.45;;;;;;;29.37;34.83;99982.00;4380631;32;34783;-89
2022/06/02 10:47:55;;;;;;;4.28;2.92;;;;;;;29.81;35.39;99992.31;4368587;32;33210;-89
2022/06/02 10:50:35;;;;;;;5.47;2.70;;;;;;;29.61;34.50;99987.28;4380755;32;34321;-89
2022/06/02 10:53:10;;;;;;;4.45;2.53;;;;;;;29.97;34.82;99982.16;4380856;32;34456;-89
2022/06/02 10:56:03;;;;;;;4.37;2.62;;;;;;;30.29;34.35;99997.88;4369433;32;33962;-89
2022/06/02 10:59:30;;;;;;;5.55;2.30;;;;;;;30.23;34.91;99996.38;4365437;32;33068;-90
2022/06/02 11:01:58;;;;;;;4.28;2.45;;;;;;;30.34;34.05;99992.06;4332608;33;34428;-90
2022/06/02 11:04:51;;;;;;;5.15;2.22;;;;;;;30.06;34.81;99987.88;4320044;33;32890;-89
2022/06/02 11:07:43;;;;;;;5.25;2.60;;;;;;;30.40;34.33;99993.56;4355548;32;33564;-90
2022/06/02 11:10:41;;;;;;;4.68;2.80;;;;;;;30.45;33.86;99976.41;4353185;32;32286;-91
2022/06/02 11:13:40;;;;;;;3.87;2.20;;;;;;;30.64;33.56;99983.72;4353046;32;32072;-90
2022/06/02 11:16:42;;;;;;;4.10;2.15;;;;;;;30.67;32.49;99977.38;4352643;32;33782;-91
2022/06/02 11:19:55;;;;;;;4.85;2.78;;;;;;;30.18;32.68;99976.72;4353149;32;33438;-92
2022/06/02 11:23:04;;;;;;;7.03;5.12;;;;;;;30.68;32.47;99974.22;4347469;32;33249;-88
2022/06/02 11:26:10;;;;;;;6.75;3.55;;;;;;;30.63;32.92;99979.22;4364949;32;33303;-90
2022/06/02 11:28:54;;;;;;;5.32;2.22;;;;;;;31.02;33.60;99973.28;4372639;32;35084;-90
2022/06/02 11:31:45;;;;;;;3.62;2.17;;;;;;;30.90;32.70;99978.00;4367827;32;33383;-89
2022/06/02 11:34:47;;;;;;;3.80;2.37;;;;;;;30.92;33.17;99982.16;4380506;32;32152;-91
2022/06/02 11:37:21;;;;;;;5.15;2.20;;;;;;;30.89;32.32;99988.50;4367662;32;31980;-89
2022/06/02 11:40:13;;;;;;;5.05;2.10;;;;;;;31.18;32.01;99975.63;4379388;32;34228;-92
2022/06/02 11:42:55;;;;;;;3.78;2.00;;;;;;;30.96;32.39;99979.47;4393876;32;34822;-91
2022/06/02 11:45:35;;;;;;;6.87;2.12;;;;;;;30.14;32.13;99990.72;4368419;32;31647;-90
2022/06/02 11:48:19;;;;;;;5.22;2.10;;;;;;;30.23;33.15;100001.22;4355815;32;32244;-90
2022/06/02 11:50:52;;;;;;;2.97;1.77;;;;;;;30.34;32.85;99983.56;4380642;32;34742;-91
2022/06/02 11:53:39;;;;;;;4.35;2.03;;;;;;;30.47;32.69;99996.72;4380349;32;33985;-91
2022/06/02 11:56:36;;;;;;;3.95;1.65;;;;;;;30.56;32.11;99981.69;4367812;32;32618;-91
2022/06/02 11:59:22;;;;;;;7.93;2.17;;;;;;;30.76;31.75;99996.03;4380100;32;33791;-91
2022/06/02 12:02:08;;;;;;;5.78;1.90;;;;;;;30.65;31.89;99999.53;4382241;32;35349;-90
2022/06/02 12:04:58;;;;;;;3.25;1.62;;;;;;;30.03;31.66;99997.03;4368120;32;31810;-91
2022/06/02 12:07:48;;;;;;;4.12;1.70;;;;;;;30.41;31.74;99994.37;4367660;32;32198;-90
2022/06/02 12:10:54;;;;;;;5.53;1.90;;;;;;;30.48;30.18;99994.72;4380191;32;33854;-91
2022/06/02 12:14:01;;;;;;;4.85;3.03;;;;;;;30.76;29.75;99990.38;4352329;32;33923;-91
2022/06/02 12:16:45;;;;;;;4.15;1.37;;;;;;;30.75;29.92;99990.69;4379974;32;32848;-90
2022/06/02 12:19:25;;;;;;;3.80;1.30;;;;;;;30.85;30.37;99992.34;4367762;32;31619;-92
2022/06/02 12:21:59;;;;;;;3.10;1.40;;;;;;;31.08;30.35;99991.78;4367956;32;34500;-89
2022/06/02 12:24:49;;;;;;;3.22;1.50;;;;;;;30.85;29.85;99989.50;4380669;32;33984;-91
2022/06/02 12:27:42;;;;;;;1.95;1.35;;;;;;;31.11;29.75;99985.44;4380094;32;33943;-91
2022/06/02 12:30:25;;;;;;;2.20;1.00;;;;;;;31.25;29.37;99992.91;4380144;32;33253;-91
2022/06/02 12:33:11;;;;;;;4.75;0.90;;;;;;;30.72;29.05;99982.88;4367858;32;33619;-93
2022/06/02 12:35:54;;;;;;;6.90;3.05;;;;;;;30.76;28.13;99993.19;4379966;32;34242;-92
2022/06/02 12:38:41;;;;;;;4.70;1.50;;;;;;;30.54;27.82;99998.22;4367365;32;32616;-92
2022/06/02 12:41:27;;;;;;;2.33;0.90;;;;;;;31.03;27.81;99993.97;4379432;32;33958;-91
2022/06/02 12:44:17;;;;;;;5.75;1.33;;;;;;;31.04;25.81;99996.47;4367546;32;32202;-92
2022/06/02 12:46:55;;;;;;;1.42;0.82;;;;;;;30.53;26.74;100005.88;4380077;32;34341;-92
2022/06/02 12:49:43;;;;;;;2.22;0.93;;;;;;;30.44;27.62;100003.06;4367566;32;32209;-91
2022/06/02 12:52:38;;;;;;;2.08;0.95;;;;;;;30.91;27.26;100003.16;4367556;32;33541;-90
2022/06/02 12:55:22;;;;;;;2.37;1.10;;;;;;;31.15;25.56;99996.13;4368029;32;33059;-91
2022/06/02 12:58:15;;;;;;;2.42;1.17;;;;;;;30.88;26.80;100003.84;4367327;32;32980;-90
2022/06/02 13:01:06;;;;;;;2.67;1.00;;;;;;;30.84;28.07;100008.53;4367456;32;32550;-92
2022/06/02 13:04:11;;;;;;;5.60;1.50;;;;;;;30.39;27.72;100008.88;4367131;32;33687;-91
2022/06/02 13:07:14;;;;;;;1.37;0.90;;;;;;;30.48;28.99;100008.88;4367273;32;32494;-91
2022/06/02 13:10:12;;;;;;;5.43;1.30;;;;;;;30.18;28.86;100013.53;4367564;32;34584;-90
2022/06/02 13:13:02;;;;;;;2.47;1.15;;;;;;;29.96;29.00;100005.97;4379685;32;33826;-90
2022/06/02 13:16:07;;;;;;;6.37;3.03;;;;;;;30.46;29.44;100003.56;4367134;32;32500;-91
2022/06/02 13:18:44;;;;;;;6.03;1.80;;;;;;;30.45;28.59;100004.72;4379651;32;33490;-90
2022/06/02 13:21:35;;;;;;;2.60;1.62;;;;;;;30.47;29.08;100004.38;4379643;32;35263;-91
2022/06/02 13:25:06;;;;;;;2.62;1.10;;;;;;;30.35;28.61;100010.72;4382568;32;35186;-92